sensor_id;sensor_type;location;lat;lon;timestamp;P1;durP1;ratioP1;P2;durP2;ratioP2
71166;SDS011;58864;45.928;20.078;2022-07-06T00:00:46;6.90;;;2.50;;
71166;SDS011;58864;45.928;20.078;2022-07-06T00:03:10;5.23;;;2.17;;
71166;SDS011;58864;45.928;20.078;2022-07-06T00:05:35;5.32;;;2.63;;
71166;SDS011;58864;45.928;20.078;2022-07-06T00:07:59;5.87;;;2.67;;
71166;SDS011;58864;45.928;20.078;2022-07-06T00:10:24;5.43;;;2.40;;
71166;SDS011;58864;45.928;20.078;2022-07-06T00:12:48;6.80;;;2.57;;
71166;SDS011;58864;45.928;20.078;2022-07-06T00:15:12;5.00;;;2.13;;
71166;SDS011;58864;45.928;20.078;2022-07-06T00:17:37;4.70;;;2.28;;
71166;SDS011;58864;45.928;20.078;2022-07-06T00:20:01;6.57;;;2.53;;
71166;SDS011;58864;45.928;20.078;2022-07-06T00:22:26;12.90;;;2.50;;
71166;SDS011;58864;45.928;20.078;2022-07-06T00:24:50;7.20;;;2.40;;
71166;SDS011;58864;45.928;20.078;2022-07-06T00:27:14;5.85;;;2.47;;
71166;SDS011;58864;45.928;20.078;2022-07-06T00:29:39;5.80;;;2.63;;
71166;SDS011;58864;45.928;20.078;2022-07-06T00:32:07;6.32;;;2.40;;
71166;SDS011;58864;45.928;20.078;2022-07-06T00:34:32;5.70;;;2.53;;
71166;SDS011;58864;45.928;20.078;2022-07-06T00:36:56;6.70;;;2.57;;
71166;SDS011;58864;45.928;20.078;2022-07-06T00:39:20;6.10;;;2.63;;
71166;SDS011;58864;45.928;20.078;2022-07-06T00:41:45;6.88;;;2.50;;
71166;SDS011;58864;45.928;20.078;2022-07-06T00:44:10;5.57;;;2.53;;
71166;SDS011;58864;45.928;20.078;2022-07-06T00:46:34;6.65;;;2.70;;
71166;SDS011;58864;45.928;20.078;2022-07-06T00:48:59;6.17;;;2.43;;
71166;SDS011;58864;45.928;20.078;2022-07-06T00:51:34;4.50;;;2.08;;
71166;SDS011;58864;45.928;20.078;2022-07-06T00:54:02;5.43;;;2.42;;
71166;SDS011;58864;45.928;20.078;2022-07-06T00:56:28;4.77;;;1.97;;
71166;SDS011;58864;45.928;20.078;2022-07-06T00:58:53;5.28;;;2.22;;
71166;SDS011;58864;45.928;20.078;2022-07-06T01:01:18;6.20;;;2.50;;
71166;SDS011;58864;45.928;20.078;2022-07-06T01:03:42;5.07;;;2.53;;
71166;SDS011;58864;45.928;20.078;2022-07-06T01:06:07;5.60;;;2.50;;
71166;SDS011;58864;45.928;20.078;2022-07-06T01:08:31;6.73;;;2.40;;
71166;SDS011;58864;45.928;20.078;2022-07-06T01:10:56;5.05;;;2.50;;
71166;SDS011;58864;45.928;20.078;2022-07-06T01:13:20;5.00;;;2.37;;
71166;SDS011;58864;45.928;20.078;2022-07-06T01:15:44;5.47;;;2.50;;
71166;SDS011;58864;45.928;20.078;2022-07-06T01:18:09;5.53;;;2.70;;
71166;SDS011;58864;45.928;20.078;2022-07-06T01:20:35;4.97;;;2.57;;
71166;SDS011;58864;45.928;20.078;2022-07-06T01:22:59;6.60;;;2.90;;
71166;SDS011;58864;45.928;20.078;2022-07-06T01:25:24;4.87;;;2.47;;
71166;SDS011;58864;45.928;20.078;2022-07-06T01:27:48;5.77;;;2.87;;
71166;SDS011;58864;45.928;20.078;2022-07-06T01:30:17;4.88;;;2.25;;
71166;SDS011;58864;45.928;20.078;2022-07-06T01:32:42;5.80;;;2.80;;
71166;SDS011;58864;45.928;20.078;2022-07-06T01:35:08;5.05;;;2.42;;
71166;SDS011;58864;45.928;20.078;2022-07-06T01:37:34;6.50;;;2.40;;
71166;SDS011;58864;45.928;20.078;2022-07-06T01:40:00;4.85;;;2.15;;
71166;SDS011;58864;45.928;20.078;2022-07-06T01:42:25;6.17;;;2.43;;
71166;SDS011;58864;45.928;20.078;2022-07-06T01:44:50;5.85;;;2.83;;
71166;SDS011;58864;45.928;20.078;2022-07-06T01:47:15;5.53;;;2.33;;
71166;SDS011;58864;45.928;20.078;2022-07-06T01:49:39;5.10;;;2.50;;
71166;SDS011;58864;45.928;20.078;2022-07-06T01:52:04;5.80;;;2.47;;
71166;SDS011;58864;45.928;20.078;2022-07-06T01:54:28;7.83;;;2.87;;
71166;SDS011;58864;45.928;20.078;2022-07-06T01:56:53;5.57;;;2.67;;
71166;SDS011;58864;45.928;20.078;2022-07-06T01:59:17;7.37;;;2.70;;
71166;SDS011;58864;45.928;20.078;2022-07-06T02:01:42;5.93;;;2.37;;
71166;SDS011;58864;45.928;20.078;2022-07-06T02:04:06;5.40;;;2.80;;
71166;SDS011;58864;45.928;20.078;2022-07-06T02:06:30;5.93;;;2.77;;
71166;SDS011;58864;45.928;20.078;2022-07-06T02:08:55;5.83;;;2.70;;
71166;SDS011;58864;45.928;20.078;2022-07-06T02:11:19;8.33;;;2.50;;
71166;SDS011;58864;45.928;20.078;2022-07-06T02:13:44;5.68;;;2.65;;
71166;SDS011;58864;45.928;20.078;2022-07-06T02:16:08;5.53;;;2.67;;
71166;SDS011;58864;45.928;20.078;2022-07-06T02:18:33;7.25;;;2.30;;
71166;SDS011;58864;45.928;20.078;2022-07-06T02:20:57;5.13;;;2.30;;
71166;SDS011;58864;45.928;20.078;2022-07-06T02:23:22;6.37;;;2.83;;
71166;SDS011;58864;45.928;20.078;2022-07-06T02:25:47;5.13;;;2.30;;
71166;SDS011;58864;45.928;20.078;2022-07-06T02:28:11;6.73;;;2.40;;
71166;SDS011;58864;45.928;20.078;2022-07-06T02:30:36;5.78;;;2.70;;
71166;SDS011;58864;45.928;20.078;2022-07-06T02:33:00;6.20;;;2.37;;
71166;SDS011;58864;45.928;20.078;2022-07-06T02:35:25;5.43;;;2.27;;
71166;SDS011;58864;45.928;20.078;2022-07-06T02:37:49;5.13;;;2.30;;
71166;SDS011;58864;45.928;20.078;2022-07-06T02:40:14;5.40;;;2.50;;
71166;SDS011;58864;45.928;20.078;2022-07-06T02:42:38;4.93;;;2.30;;
71166;SDS011;58864;45.928;20.078;2022-07-06T02:45:03;6.10;;;2.55;;
71166;SDS011;58864;45.928;20.078;2022-07-06T02:47:28;6.00;;;2.80;;
71166;SDS011;58864;45.928;20.078;2022-07-06T02:49:53;8.97;;;3.03;;
71166;SDS011;58864;45.928;20.078;2022-07-06T02:52:18;5.68;;;2.55;;
71166;SDS011;58864;45.928;20.078;2022-07-06T02:54:43;6.80;;;3.13;;
71166;SDS011;58864;45.928;20.078;2022-07-06T02:57:07;6.70;;;2.67;;
71166;SDS011;58864;45.928;20.078;2022-07-06T02:59:32;5.23;;;2.47;;
71166;SDS011;58864;45.928;20.078;2022-07-06T03:01:56;6.43;;;3.00;;
71166;SDS011;58864;45.928;20.078;2022-07-06T03:04:20;7.85;;;2.95;;
71166;SDS011;58864;45.928;20.078;2022-07-06T03:06:45;5.43;;;2.50;;
71166;SDS011;58864;45.928;20.078;2022-07-06T03:09:09;6.30;;;3.13;;
71166;SDS011;58864;45.928;20.078;2022-07-06T03:11:34;8.75;;;3.08;;
71166;SDS011;58864;45.928;20.078;2022-07-06T03:14:00;6.13;;;2.83;;
71166;SDS011;58864;45.928;20.078;2022-07-06T03:16:26;5.95;;;2.45;;
71166;SDS011;58864;45.928;20.078;2022-07-06T03:18:51;8.83;;;2.90;;
71166;SDS011;58864;45.928;20.078;2022-07-06T03:21:15;5.90;;;2.85;;
71166;SDS011;58864;45.928;20.078;2022-07-06T03:23:40;5.23;;;2.43;;
71166;SDS011;58864;45.928;20.078;2022-07-06T03:26:04;6.07;;;2.50;;
71166;SDS011;58864;45.928;20.078;2022-07-06T03:28:28;8.50;;;3.20;;
71166;SDS011;58864;45.928;20.078;2022-07-06T03:30:53;5.70;;;2.63;;
71166;SDS011;58864;45.928;20.078;2022-07-06T03:33:18;6.75;;;3.42;;
71166;SDS011;58864;45.928;20.078;2022-07-06T03:35:43;6.73;;;3.30;;
71166;SDS011;58864;45.928;20.078;2022-07-06T03:38:08;5.50;;;2.70;;
71166;SDS011;58864;45.928;20.078;2022-07-06T03:40:33;6.87;;;3.20;;
71166;SDS011;58864;45.928;20.078;2022-07-06T03:42:57;6.32;;;2.65;;
71166;SDS011;58864;45.928;20.078;2022-07-06T03:45:22;7.07;;;2.97;;
71166;SDS011;58864;45.928;20.078;2022-07-06T03:47:46;7.77;;;3.10;;
71166;SDS011;58864;45.928;20.078;2022-07-06T03:50:11;8.18;;;2.95;;
71166;SDS011;58864;45.928;20.078;2022-07-06T03:52:35;6.03;;;3.00;;
71166;SDS011;58864;45.928;20.078;2022-07-06T03:55:03;7.45;;;2.70;;
71166;SDS011;58864;45.928;20.078;2022-07-06T03:57:28;6.90;;;3.30;;
71166;SDS011;58864;45.928;20.078;2022-07-06T03:59:52;7.15;;;3.20;;
71166;SDS011;58864;45.928;20.078;2022-07-06T04:02:17;8.03;;;3.07;;
71166;SDS011;58864;45.928;20.078;2022-07-06T04:04:41;6.37;;;3.43;;
71166;SDS011;58864;45.928;20.078;2022-07-06T04:07:06;6.43;;;2.93;;
71166;SDS011;58864;45.928;20.078;2022-07-06T04:09:30;7.20;;;3.30;;
71166;SDS011;58864;45.928;20.078;2022-07-06T04:11:55;7.43;;;3.13;;
71166;SDS011;58864;45.928;20.078;2022-07-06T04:14:19;6.23;;;3.10;;
71166;SDS011;58864;45.928;20.078;2022-07-06T04:16:43;6.57;;;3.27;;
71166;SDS011;58864;45.928;20.078;2022-07-06T04:19:08;6.32;;;3.17;;
71166;SDS011;58864;45.928;20.078;2022-07-06T04:21:32;6.17;;;2.63;;
71166;SDS011;58864;45.928;20.078;2022-07-06T04:23:57;7.47;;;3.50;;
71166;SDS011;58864;45.928;20.078;2022-07-06T04:26:21;6.63;;;3.23;;
71166;SDS011;58864;45.928;20.078;2022-07-06T04:28:45;7.32;;;3.42;;
71166;SDS011;58864;45.928;20.078;2022-07-06T04:31:10;6.33;;;2.63;;
71166;SDS011;58864;45.928;20.078;2022-07-06T04:33:35;5.80;;;2.83;;
71166;SDS011;58864;45.928;20.078;2022-07-06T04:35:59;6.33;;;3.23;;
71166;SDS011;58864;45.928;20.078;2022-07-06T04:38:24;6.40;;;2.87;;
71166;SDS011;58864;45.928;20.078;2022-07-06T04:40:48;6.17;;;3.00;;
71166;SDS011;58864;45.928;20.078;2022-07-06T04:43:13;6.70;;;3.25;;
71166;SDS011;58864;45.928;20.078;2022-07-06T04:45:37;7.27;;;3.07;;
71166;SDS011;58864;45.928;20.078;2022-07-06T04:48:02;6.97;;;3.27;;
71166;SDS011;58864;45.928;20.078;2022-07-06T04:50:27;6.17;;;2.90;;
71166;SDS011;58864;45.928;20.078;2022-07-06T04:52:51;6.20;;;3.25;;
71166;SDS011;58864;45.928;20.078;2022-07-06T04:55:16;8.13;;;3.30;;
71166;SDS011;58864;45.928;20.078;2022-07-06T04:57:40;7.20;;;3.27;;
71166;SDS011;58864;45.928;20.078;2022-07-06T05:00:05;6.53;;;3.10;;
71166;SDS011;58864;45.928;20.078;2022-07-06T05:02:30;6.07;;;2.83;;
71166;SDS011;58864;45.928;20.078;2022-07-06T05:04:54;6.00;;;2.87;;
71166;SDS011;58864;45.928;20.078;2022-07-06T05:07:19;8.90;;;2.87;;
71166;SDS011;58864;45.928;20.078;2022-07-06T05:09:43;5.53;;;2.30;;
71166;SDS011;58864;45.928;20.078;2022-07-06T05:12:08;5.97;;;2.97;;
71166;SDS011;58864;45.928;20.078;2022-07-06T05:14:33;5.97;;;3.20;;
71166;SDS011;58864;45.928;20.078;2022-07-06T05:16:57;9.48;;;3.35;;
71166;SDS011;58864;45.928;20.078;2022-07-06T05:19:22;6.57;;;2.00;;
71166;SDS011;58864;45.928;20.078;2022-07-06T05:21:46;5.65;;;2.30;;
71166;SDS011;58864;45.928;20.078;2022-07-06T05:24:11;6.70;;;2.70;;
71166;SDS011;58864;45.928;20.078;2022-07-06T05:26:35;5.90;;;2.50;;
71166;SDS011;58864;45.928;20.078;2022-07-06T05:29:00;4.77;;;2.27;;
71166;SDS011;58864;45.928;20.078;2022-07-06T05:31:24;5.23;;;2.30;;
71166;SDS011;58864;45.928;20.078;2022-07-06T05:33:49;5.77;;;2.57;;
71166;SDS011;58864;45.928;20.078;2022-07-06T05:36:13;6.97;;;3.37;;
71166;SDS011;58864;45.928;20.078;2022-07-06T05:38:38;6.68;;;3.00;;
71166;SDS011;58864;45.928;20.078;2022-07-06T05:41:02;6.33;;;2.63;;
71166;SDS011;58864;45.928;20.078;2022-07-06T05:43:27;6.40;;;2.90;;
71166;SDS011;58864;45.928;20.078;2022-07-06T05:45:51;5.38;;;2.40;;
71166;SDS011;58864;45.928;20.078;2022-07-06T05:48:16;6.40;;;2.30;;
71166;SDS011;58864;45.928;20.078;2022-07-06T05:50:59;5.07;;;2.47;;
71166;SDS011;58864;45.928;20.078;2022-07-06T05:53:23;7.10;;;2.80;;
71166;SDS011;58864;45.928;20.078;2022-07-06T05:55:48;8.07;;;2.53;;
71166;SDS011;58864;45.928;20.078;2022-07-06T05:58:12;4.95;;;2.20;;
71166;SDS011;58864;45.928;20.078;2022-07-06T06:00:37;6.37;;;2.87;;
71166;SDS011;58864;45.928;20.078;2022-07-06T06:03:01;7.57;;;2.57;;
71166;SDS011;58864;45.928;20.078;2022-07-06T06:05:26;6.55;;;2.40;;
71166;SDS011;58864;45.928;20.078;2022-07-06T06:07:50;3.97;;;1.47;;
71166;SDS011;58864;45.928;20.078;2022-07-06T06:10:17;4.60;;;1.98;;
71166;SDS011;58864;45.928;20.078;2022-07-06T06:12:41;5.07;;;2.20;;
71166;SDS011;58864;45.928;20.078;2022-07-06T06:15:06;4.47;;;2.00;;
71166;SDS011;58864;45.928;20.078;2022-07-06T06:17:31;5.30;;;2.20;;
71166;SDS011;58864;45.928;20.078;2022-07-06T06:19:56;5.47;;;2.33;;
71166;SDS011;58864;45.928;20.078;2022-07-06T06:22:21;6.63;;;2.43;;
71166;SDS011;58864;45.928;20.078;2022-07-06T06:24:45;4.97;;;2.43;;
71166;SDS011;58864;45.928;20.078;2022-07-06T06:27:10;6.70;;;3.00;;
71166;SDS011;58864;45.928;20.078;2022-07-06T06:29:35;5.72;;;2.22;;
71166;SDS011;58864;45.928;20.078;2022-07-06T06:31:59;4.97;;;2.10;;
71166;SDS011;58864;45.928;20.078;2022-07-06T06:34:24;5.13;;;2.17;;
71166;SDS011;58864;45.928;20.078;2022-07-06T06:36:48;5.03;;;2.17;;
71166;SDS011;58864;45.928;20.078;2022-07-06T06:39:13;6.43;;;2.97;;
71166;SDS011;58864;45.928;20.078;2022-07-06T06:41:38;4.45;;;2.03;;
71166;SDS011;58864;45.928;20.078;2022-07-06T06:44:02;4.70;;;2.10;;
71166;SDS011;58864;45.928;20.078;2022-07-06T06:46:27;5.73;;;2.27;;
71166;SDS011;58864;45.928;20.078;2022-07-06T06:48:51;4.80;;;2.05;;
71166;SDS011;58864;45.928;20.078;2022-07-06T06:51:15;5.13;;;1.90;;
71166;SDS011;58864;45.928;20.078;2022-07-06T06:53:40;4.40;;;1.90;;
71166;SDS011;58864;45.928;20.078;2022-07-06T06:56:04;5.40;;;2.03;;
71166;SDS011;58864;45.928;20.078;2022-07-06T06:58:29;5.70;;;1.98;;
71166;SDS011;58864;45.928;20.078;2022-07-06T07:00:53;6.80;;;2.00;;
71166;SDS011;58864;45.928;20.078;2022-07-06T07:03:19;5.05;;;2.20;;
71166;SDS011;58864;45.928;20.078;2022-07-06T07:05:43;6.90;;;1.90;;
71166;SDS011;58864;45.928;20.078;2022-07-06T07:08:08;4.37;;;1.87;;
71166;SDS011;58864;45.928;20.078;2022-07-06T07:10:32;4.45;;;1.65;;
71166;SDS011;58864;45.928;20.078;2022-07-06T07:12:57;4.13;;;1.60;;
71166;SDS011;58864;45.928;20.078;2022-07-06T07:15:21;8.63;;;2.40;;
71166;SDS011;58864;45.928;20.078;2022-07-06T07:17:45;4.83;;;2.13;;
71166;SDS011;58864;45.928;20.078;2022-07-06T07:20:10;4.90;;;1.83;;
71166;SDS011;58864;45.928;20.078;2022-07-06T07:22:35;4.63;;;1.73;;
71166;SDS011;58864;45.928;20.078;2022-07-06T07:24:59;4.50;;;1.70;;
71166;SDS011;58864;45.928;20.078;2022-07-06T07:27:24;4.47;;;1.90;;
71166;SDS011;58864;45.928;20.078;2022-07-06T07:29:49;4.53;;;2.00;;
71166;SDS011;58864;45.928;20.078;2022-07-06T07:32:14;4.47;;;1.70;;
71166;SDS011;58864;45.928;20.078;2022-07-06T07:34:38;4.68;;;1.73;;
71166;SDS011;58864;45.928;20.078;2022-07-06T07:37:02;4.73;;;1.80;;
71166;SDS011;58864;45.928;20.078;2022-07-06T07:39:27;5.40;;;1.80;;
71166;SDS011;58864;45.928;20.078;2022-07-06T07:41:51;4.25;;;1.70;;
71166;SDS011;58864;45.928;20.078;2022-07-06T07:44:16;4.20;;;1.63;;
71166;SDS011;58864;45.928;20.078;2022-07-06T07:46:41;4.20;;;1.80;;
71166;SDS011;58864;45.928;20.078;2022-07-06T07:49:05;4.50;;;1.75;;
71166;SDS011;58864;45.928;20.078;2022-07-06T07:51:29;4.20;;;1.70;;
71166;SDS011;58864;45.928;20.078;2022-07-06T07:53:54;4.00;;;1.50;;
71166;SDS011;58864;45.928;20.078;2022-07-06T07:56:18;4.13;;;1.50;;
71166;SDS011;58864;45.928;20.078;2022-07-06T07:58:43;4.25;;;1.85;;
71166;SDS011;58864;45.928;20.078;2022-07-06T08:01:07;3.73;;;1.47;;
71166;SDS011;58864;45.928;20.078;2022-07-06T08:03:31;4.80;;;1.70;;
71166;SDS011;58864;45.928;20.078;2022-07-06T08:05:56;4.07;;;1.60;;
71166;SDS011;58864;45.928;20.078;2022-07-06T08:08:20;4.22;;;1.60;;
71166;SDS011;58864;45.928;20.078;2022-07-06T08:10:45;6.97;;;2.00;;
71166;SDS011;58864;45.928;20.078;2022-07-06T08:13:09;4.57;;;1.87;;
71166;SDS011;58864;45.928;20.078;2022-07-06T08:15:34;4.07;;;1.60;;
71166;SDS011;58864;45.928;20.078;2022-07-06T08:17:59;4.37;;;1.80;;
71166;SDS011;58864;45.928;20.078;2022-07-06T08:20:23;5.82;;;1.67;;
71166;SDS011;58864;45.928;20.078;2022-07-06T08:22:48;5.33;;;1.80;;
71166;SDS011;58864;45.928;20.078;2022-07-06T08:25:12;5.67;;;1.80;;
71166;SDS011;58864;45.928;20.078;2022-07-06T08:27:37;4.10;;;1.67;;
71166;SDS011;58864;45.928;20.078;2022-07-06T08:30:03;4.27;;;1.60;;
71166;SDS011;58864;45.928;20.078;2022-07-06T08:32:28;5.97;;;2.10;;
71166;SDS011;58864;45.928;20.078;2022-07-06T08:34:52;4.17;;;1.80;;
71166;SDS011;58864;45.928;20.078;2022-07-06T08:37:17;4.70;;;1.90;;
71166;SDS011;58864;45.928;20.078;2022-07-06T08:39:42;5.10;;;1.80;;
71166;SDS011;58864;45.928;20.078;2022-07-06T08:42:07;4.37;;;1.80;;
71166;SDS011;58864;45.928;20.078;2022-07-06T08:44:32;7.07;;;2.20;;
71166;SDS011;58864;45.928;20.078;2022-07-06T08:46:57;5.05;;;2.10;;
71166;SDS011;58864;45.928;20.078;2022-07-06T08:49:22;4.33;;;2.10;;
71166;SDS011;58864;45.928;20.078;2022-07-06T08:51:48;4.85;;;2.08;;
71166;SDS011;58864;45.928;20.078;2022-07-06T08:54:12;5.80;;;2.30;;
71166;SDS011;58864;45.928;20.078;2022-07-06T08:56:37;6.95;;;2.58;;
71166;SDS011;58864;45.928;20.078;2022-07-06T08:59:02;5.97;;;2.10;;
71166;SDS011;58864;45.928;20.078;2022-07-06T09:01:27;4.03;;;1.80;;
71166;SDS011;58864;45.928;20.078;2022-07-06T09:03:52;8.23;;;1.87;;
71166;SDS011;58864;45.928;20.078;2022-07-06T09:06:25;4.65;;;1.98;;
71166;SDS011;58864;45.928;20.078;2022-07-06T09:08:54;4.53;;;1.90;;
71166;SDS011;58864;45.928;20.078;2022-07-06T09:11:22;9.30;;;2.10;;
71166;SDS011;58864;45.928;20.078;2022-07-06T09:13:48;4.38;;;2.00;;
71166;SDS011;58864;45.928;20.078;2022-07-06T09:16:13;6.63;;;1.87;;
71166;SDS011;58864;45.928;20.078;2022-07-06T09:18:39;4.90;;;1.90;;
71166;SDS011;58864;45.928;20.078;2022-07-06T09:21:06;4.95;;;2.05;;
71166;SDS011;58864;45.928;20.078;2022-07-06T09:23:30;4.23;;;1.73;;
71166;SDS011;58864;45.928;20.078;2022-07-06T09:25:55;4.57;;;1.80;;
71166;SDS011;58864;45.928;20.078;2022-07-06T09:28:19;4.10;;;1.60;;
71166;SDS011;58864;45.928;20.078;2022-07-06T09:30:44;5.03;;;1.67;;
71166;SDS011;58864;45.928;20.078;2022-07-06T09:33:08;5.75;;;1.45;;
71166;SDS011;58864;45.928;20.078;2022-07-06T09:35:36;4.63;;;1.67;;
71166;SDS011;58864;45.928;20.078;2022-07-06T09:38:08;4.15;;;1.15;;
71166;SDS011;58864;45.928;20.078;2022-07-06T09:40:42;3.78;;;1.45;;
71166;SDS011;58864;45.928;20.078;2022-07-06T09:43:17;5.28;;;1.60;;
71166;SDS011;58864;45.928;20.078;2022-07-06T09:45:43;5.18;;;1.75;;
71166;SDS011;58864;45.928;20.078;2022-07-06T09:48:15;3.73;;;1.40;;
71166;SDS011;58864;45.928;20.078;2022-07-06T09:50:47;5.78;;;1.30;;
71166;SDS011;58864;45.928;20.078;2022-07-06T09:53:22;3.95;;;1.27;;
71166;SDS011;58864;45.928;20.078;2022-07-06T09:55:49;6.38;;;2.38;;
71166;SDS011;58864;45.928;20.078;2022-07-06T09:58:15;3.85;;;1.45;;
71166;SDS011;58864;45.928;20.078;2022-07-06T10:00:43;4.07;;;1.77;;
71166;SDS011;58864;45.928;20.078;2022-07-06T10:03:08;4.28;;;1.50;;
71166;SDS011;58864;45.928;20.078;2022-07-06T10:05:33;4.78;;;1.98;;
71166;SDS011;58864;45.928;20.078;2022-07-06T10:08:01;6.38;;;1.77;;
71166;SDS011;58864;45.928;20.078;2022-07-06T10:10:26;5.30;;;2.20;;
71166;SDS011;58864;45.928;20.078;2022-07-06T10:12:51;5.18;;;2.28;;
71166;SDS011;58864;45.928;20.078;2022-07-06T10:15:19;4.60;;;2.27;;
71166;SDS011;58864;45.928;20.078;2022-07-06T10:17:46;5.60;;;2.50;;
71166;SDS011;58864;45.928;20.078;2022-07-06T10:20:11;6.88;;;2.63;;
71166;SDS011;58864;45.928;20.078;2022-07-06T10:22:35;5.77;;;2.77;;
71166;SDS011;58864;45.928;20.078;2022-07-06T10:25:01;5.57;;;2.97;;
71166;SDS011;58864;45.928;20.078;2022-07-06T10:27:26;8.02;;;2.92;;
71166;SDS011;58864;45.928;20.078;2022-07-06T10:29:50;5.73;;;2.93;;
71166;SDS011;58864;45.928;20.078;2022-07-06T10:32:17;5.63;;;3.17;;
71166;SDS011;58864;45.928;20.078;2022-07-06T10:34:43;6.90;;;2.93;;
71166;SDS011;58864;45.928;20.078;2022-07-06T10:37:07;6.80;;;3.20;;
71166;SDS011;58864;45.928;20.078;2022-07-06T10:39:45;6.20;;;2.70;;
71166;SDS011;58864;45.928;20.078;2022-07-06T10:45:08;4.88;;;2.35;;
71166;SDS011;58864;45.928;20.078;2022-07-06T10:47:33;5.18;;;2.42;;
71166;SDS011;58864;45.928;20.078;2022-07-06T10:49:59;5.30;;;2.38;;
71166;SDS011;58864;45.928;20.078;2022-07-06T10:52:46;4.93;;;1.90;;
71166;SDS011;58864;45.928;20.078;2022-07-06T10:55:35;6.55;;;2.40;;
71166;SDS011;58864;45.928;20.078;2022-07-06T10:58:01;5.15;;;2.03;;
71166;SDS011;58864;45.928;20.078;2022-07-06T11:00:26;5.00;;;2.10;;
71166;SDS011;58864;45.928;20.078;2022-07-06T11:11:24;6.18;;;1.90;;
71166;SDS011;58864;45.928;20.078;2022-07-06T11:13:58;5.72;;;1.67;;
71166;SDS011;58864;45.928;20.078;2022-07-06T11:16:26;5.85;;;1.88;;
71166;SDS011;58864;45.928;20.078;2022-07-06T11:19:01;4.23;;;1.70;;
71166;SDS011;58864;45.928;20.078;2022-07-06T11:24:37;4.60;;;1.90;;
71166;SDS011;58864;45.928;20.078;2022-07-06T11:27:01;5.72;;;2.30;;
71166;SDS011;58864;45.928;20.078;2022-07-06T11:29:27;4.93;;;2.03;;
71166;SDS011;58864;45.928;20.078;2022-07-06T11:31:53;4.97;;;2.15;;
71166;SDS011;58864;45.928;20.078;2022-07-06T11:34:21;6.28;;;1.85;;
71166;SDS011;58864;45.928;20.078;2022-07-06T11:36:47;4.35;;;1.30;;
71166;SDS011;58864;45.928;20.078;2022-07-06T11:39:12;4.10;;;1.60;;
71166;SDS011;58864;45.928;20.078;2022-07-06T11:41:37;3.50;;;1.10;;
71166;SDS011;58864;45.928;20.078;2022-07-06T11:44:01;2.73;;;0.80;;
71166;SDS011;58864;45.928;20.078;2022-07-06T11:46:30;3.17;;;0.90;;
71166;SDS011;58864;45.928;20.078;2022-07-06T11:48:57;3.25;;;0.98;;
71166;SDS011;58864;45.928;20.078;2022-07-06T11:51:26;2.63;;;1.00;;
71166;SDS011;58864;45.928;20.078;2022-07-06T11:53:56;2.90;;;0.90;;
71166;SDS011;58864;45.928;20.078;2022-07-06T11:56:22;2.85;;;0.88;;
71166;SDS011;58864;45.928;20.078;2022-07-06T11:58:52;3.47;;;1.02;;
71166;SDS011;58864;45.928;20.078;2022-07-06T12:01:20;5.13;;;1.10;;
71166;SDS011;58864;45.928;20.078;2022-07-06T12:03:46;4.07;;;1.20;;
71166;SDS011;58864;45.928;20.078;2022-07-06T12:06:29;3.92;;;1.05;;
71166;SDS011;58864;45.928;20.078;2022-07-06T12:08:58;5.45;;;0.90;;
71166;SDS011;58864;45.928;20.078;2022-07-06T12:11:30;3.83;;;0.90;;
71166;SDS011;58864;45.928;20.078;2022-07-06T12:14:02;2.97;;;0.90;;
71166;SDS011;58864;45.928;20.078;2022-07-06T12:16:37;3.05;;;0.82;;
71166;SDS011;58864;45.928;20.078;2022-07-06T12:19:02;13.77;;;1.10;;
71166;SDS011;58864;45.928;20.078;2022-07-06T12:21:28;3.17;;;1.00;;
71166;SDS011;58864;45.928;20.078;2022-07-06T12:23:52;3.33;;;1.10;;
71166;SDS011;58864;45.928;20.078;2022-07-06T12:26:18;4.32;;;0.70;;
71166;SDS011;58864;45.928;20.078;2022-07-06T12:28:44;3.15;;;0.82;;
71166;SDS011;58864;45.928;20.078;2022-07-06T12:31:09;2.78;;;0.80;;
71166;SDS011;58864;45.928;20.078;2022-07-06T12:33:34;2.60;;;0.70;;
71166;SDS011;58864;45.928;20.078;2022-07-06T12:36:09;2.17;;;0.63;;
71166;SDS011;58864;45.928;20.078;2022-07-06T12:38:43;4.25;;;0.50;;
71166;SDS011;58864;45.928;20.078;2022-07-06T12:41:08;2.05;;;0.50;;
71166;SDS011;58864;45.928;20.078;2022-07-06T12:43:39;3.70;;;0.40;;
71166;SDS011;58864;45.928;20.078;2022-07-06T12:48:53;1.80;;;0.47;;
71166;SDS011;58864;45.928;20.078;2022-07-06T12:51:18;1.60;;;0.40;;
71166;SDS011;58864;45.928;20.078;2022-07-06T12:53:43;1.63;;;0.40;;
71166;SDS011;58864;45.928;20.078;2022-07-06T12:56:11;1.90;;;0.50;;
71166;SDS011;58864;45.928;20.078;2022-07-06T12:58:36;1.98;;;0.40;;
71166;SDS011;58864;45.928;20.078;2022-07-06T13:01:00;1.97;;;0.63;;
71166;SDS011;58864;45.928;20.078;2022-07-06T13:03:25;2.37;;;0.57;;
71166;SDS011;58864;45.928;20.078;2022-07-06T13:05:49;1.87;;;0.50;;
71166;SDS011;58864;45.928;20.078;2022-07-06T13:08:14;1.40;;;0.30;;
71166;SDS011;58864;45.928;20.078;2022-07-06T13:10:38;1.35;;;0.30;;
71166;SDS011;58864;45.928;20.078;2022-07-06T13:13:07;1.47;;;0.40;;
71166;SDS011;58864;45.928;20.078;2022-07-06T13:15:32;1.45;;;0.38;;
71166;SDS011;58864;45.928;20.078;2022-07-06T13:17:56;1.47;;;0.40;;
71166;SDS011;58864;45.928;20.078;2022-07-06T13:20:21;1.65;;;0.38;;
71166;SDS011;58864;45.928;20.078;2022-07-06T13:22:45;1.43;;;0.40;;
71166;SDS011;58864;45.928;20.078;2022-07-06T13:25:10;2.80;;;0.50;;
71166;SDS011;58864;45.928;20.078;2022-07-06T13:27:34;1.80;;;0.40;;
71166;SDS011;58864;45.928;20.078;2022-07-06T13:29:59;1.90;;;0.30;;
71166;SDS011;58864;45.928;20.078;2022-07-06T13:32:23;1.30;;;0.30;;
71166;SDS011;58864;45.928;20.078;2022-07-06T13:34:48;1.98;;;0.47;;
71166;SDS011;58864;45.928;20.078;2022-07-06T13:37:13;1.33;;;0.30;;
71166;SDS011;58864;45.928;20.078;2022-07-06T13:39:37;2.45;;;0.60;;
71166;SDS011;58864;45.928;20.078;2022-07-06T13:42:01;2.13;;;0.50;;
71166;SDS011;58864;45.928;20.078;2022-07-06T13:44:26;2.77;;;0.40;;
71166;SDS011;58864;45.928;20.078;2022-07-06T13:46:50;1.58;;;0.40;;
71166;SDS011;58864;45.928;20.078;2022-07-06T13:49:15;1.63;;;0.40;;
71166;SDS011;58864;45.928;20.078;2022-07-06T13:51:40;2.13;;;0.50;;
71166;SDS011;58864;45.928;20.078;2022-07-06T13:54:04;2.25;;;0.50;;
71166;SDS011;58864;45.928;20.078;2022-07-06T13:56:29;2.03;;;0.50;;
71166;SDS011;58864;45.928;20.078;2022-07-06T13:58:54;1.70;;;0.40;;
71166;SDS011;58864;45.928;20.078;2022-07-06T14:01:19;1.45;;;0.45;;
71166;SDS011;58864;45.928;20.078;2022-07-06T14:03:43;1.53;;;0.40;;
71166;SDS011;58864;45.928;20.078;2022-07-06T14:06:08;2.93;;;0.60;;
71166;SDS011;58864;45.928;20.078;2022-07-06T14:08:33;1.40;;;0.40;;
71166;SDS011;58864;45.928;20.078;2022-07-06T14:11:00;1.40;;;0.30;;
71166;SDS011;58864;45.928;20.078;2022-07-06T14:13:25;1.93;;;0.50;;
71166;SDS011;58864;45.928;20.078;2022-07-06T14:15:49;1.87;;;0.47;;
71166;SDS011;58864;45.928;20.078;2022-07-06T14:18:14;3.22;;;0.60;;
71166;SDS011;58864;45.928;20.078;2022-07-06T14:20:41;1.90;;;0.40;;
71166;SDS011;58864;45.928;20.078;2022-07-06T14:23:05;2.03;;;0.40;;
71166;SDS011;58864;45.928;20.078;2022-07-06T14:25:30;1.73;;;0.47;;
71166;SDS011;58864;45.928;20.078;2022-07-06T14:27:54;3.73;;;0.50;;
71166;SDS011;58864;45.928;20.078;2022-07-06T14:30:19;1.83;;;0.45;;
71166;SDS011;58864;45.928;20.078;2022-07-06T14:32:43;4.03;;;0.50;;
71166;SDS011;58864;45.928;20.078;2022-07-06T14:35:08;2.03;;;0.60;;
71166;SDS011;58864;45.928;20.078;2022-07-06T14:37:32;3.85;;;0.70;;
71166;SDS011;58864;45.928;20.078;2022-07-06T14:39:57;3.53;;;0.67;;